createdAt,value
2019-04-14T00:01:15.488Z,101993.43
2019-04-14T00:04:05.138Z,102002.48
2019-04-14T00:06:33.106Z,101999.91
2019-04-14T00:09:05.267Z,102001.39
2019-04-14T00:11:32.232Z,102000.31
2019-04-14T00:14:05.218Z,101997.47
2019-04-14T00:16:31.484Z,101998.58
2019-04-14T00:19:00.907Z,101994.98
2019-04-14T00:21:30.435Z,101993.63
2019-04-14T00:24:00.668Z,101994.50
2019-04-14T00:26:31.348Z,101986.27
2019-04-14T00:29:00.107Z,101985.07
2019-04-14T00:31:30.849Z,101985.48
2019-04-14T00:34:05.415Z,101987.80
2019-04-14T00:36:48.314Z,101986.66
2019-04-14T00:39:27.196Z,101985.41
2019-04-14T00:42:21.461Z,101989.09
2019-04-14T00:44:58.054Z,101985.50
2019-04-14T00:47:48.442Z,101985.97
2019-04-14T00:50:05.814Z,101989.61
2019-04-14T00:52:35.174Z,101979.98
2019-04-14T00:55:05.397Z,101986.30
2019-04-14T00:57:35.541Z,101981.91
2019-04-14T01:00:04.118Z,101982.32
2019-04-14T01:02:34.007Z,101982.93
2019-04-14T01:05:02.957Z,101983.39
2019-04-14T01:07:32.756Z,101984.59
2019-04-14T01:10:01.882Z,101980.91
2019-04-14T01:12:32.100Z,101984.14
2019-04-14T01:15:00.719Z,101984.64
2019-04-14T01:17:33.098Z,101983.91
2019-04-14T01:20:03.503Z,101980.08
2019-04-14T01:22:31.563Z,101978.33
2019-04-14T01:25:04.380Z,101981.64
2019-04-14T01:27:34.116Z,101981.52
2019-04-14T01:30:06.643Z,101989.24
2019-04-14T01:32:35.007Z,101980.45
2019-04-14T01:35:05.391Z,101987.13
2019-04-14T01:37:37.517Z,101982.94
2019-04-14T01:40:03.791Z,101977.23
2019-04-14T01:42:33.489Z,101986.58
2019-04-14T01:45:03.627Z,101988.83
2019-04-14T01:47:35.639Z,101986.63
2019-04-14T01:50:06.009Z,101985.47
2019-04-14T01:52:55.164Z,101988.13
2019-04-14T01:55:37.391Z,101985.52
2019-04-14T01:58:18.611Z,101986.06
2019-04-14T02:01:19.528Z,101992.78
2019-04-14T02:03:47.903Z,101993.38
2019-04-14T02:06:17.982Z,101989.48
2019-04-14T02:08:46.359Z,101991.14
2019-04-14T02:11:15.915Z,101990.16
2019-04-14T02:13:46.329Z,101993.71
2019-04-14T02:16:23.987Z,101996.23
2019-04-14T02:18:44.811Z,101999.97
2019-04-14T02:21:17.184Z,101999.87
2019-04-14T02:23:47.514Z,101994.81
2019-04-14T02:26:15.388Z,101993.11
2019-04-14T02:28:43.900Z,101987.61
2019-04-14T02:31:29.805Z,101993.25
2019-04-14T02:34:17.455Z,101991.83
2019-04-14T02:39:35.948Z,101990.91
2019-04-14T02:47:11.686Z,101988.12
2019-04-14T02:49:12.469Z,101991.72
2019-04-14T02:51:43.912Z,101994.16
2019-04-14T02:54:22.869Z,101993.65
2019-04-14T02:56:58.425Z,101991.44
2019-04-14T02:59:41.512Z,101993.75
2019-04-14T03:01:54.780Z,101991.48
2019-04-14T03:04:19.471Z,101999.50
2019-04-14T03:06:48.505Z,102001.30
2019-04-14T03:09:28.922Z,101998.63
2019-04-14T03:11:49.024Z,102000.02
2019-04-14T03:14:25.450Z,102000.52
2019-04-14T03:17:19.283Z,102001.07
2019-04-14T03:19:59.146Z,102002.31
2019-04-14T03:22:28.967Z,102004.84
2019-04-14T03:24:47.191Z,102001.74
2019-04-14T03:27:40.375Z,101996.57
2019-04-14T03:35:52.056Z,101989.95
2019-04-14T03:37:50.873Z,101987.22
2019-04-14T03:40:28.131Z,101985.66
2019-04-14T03:42:59.599Z,101990.36
2019-04-14T03:45:36.281Z,101987.77
2019-04-14T03:48:15.298Z,101988.33
2019-04-14T03:50:21.527Z,101999.02
2019-04-14T03:55:11.327Z,102003.30
2019-04-14T03:57:29.353Z,102006.23
2019-04-14T03:59:59.029Z,102008.47
2019-04-14T04:02:29.342Z,102006.25
2019-04-14T04:04:57.737Z,102013.22
2019-04-14T04:07:27.910Z,102012.59
2019-04-14T04:10:00.552Z,102016.14
2019-04-14T04:12:29.826Z,102022.17
2019-04-14T04:14:59.735Z,102013.06
2019-04-14T04:17:49.441Z,102020.08
2019-04-14T04:20:26.387Z,102024.04
2019-04-14T04:23:18.874Z,102030.67
2019-04-14T04:25:57.253Z,102022.95
2019-04-14T04:28:43.435Z,102028.88
2019-04-14T04:31:30.624Z,102035.34
2019-04-14T04:34:23.582Z,102030.73
2019-04-14T04:37:30.137Z,102028.11
2019-04-14T04:40:02.996Z,102028.00
2019-04-14T04:42:31.189Z,102027.53
2019-04-14T04:45:01.687Z,102027.70
2019-04-14T04:47:29.840Z,102030.32
2019-04-14T04:50:00.043Z,102037.77
2019-04-14T04:52:30.027Z,102039.90
2019-04-14T04:54:58.312Z,102040.14
2019-04-14T04:57:28.510Z,102046.58
2019-04-14T04:59:58.104Z,102041.06
2019-04-14T05:02:26.664Z,102050.84
2019-04-14T05:04:55.574Z,102048.83
2019-04-14T05:07:25.279Z,102053.55
2019-04-14T05:10:19.555Z,102056.55
2019-04-14T05:13:07.620Z,102060.24
2019-04-14T05:15:40.404Z,102058.14
2019-04-14T05:18:11.244Z,102061.99
2019-04-14T05:20:40.089Z,102054.63
2019-04-14T05:23:10.252Z,102055.30
2019-04-14T05:25:38.638Z,102060.95
2019-04-14T05:28:09.013Z,102058.85
2019-04-14T05:30:37.319Z,102064.24
2019-04-14T05:33:07.491Z,102066.69
2019-04-14T05:35:36.328Z,102072.19
2019-04-14T05:38:06.217Z,102068.93
2019-04-14T05:40:34.845Z,102075.16
2019-04-14T05:43:04.552Z,102064.30
2019-04-14T05:45:33.585Z,102064.85
2019-04-14T05:48:03.263Z,102076.62
2019-04-14T05:50:34.225Z,102081.30
2019-04-14T05:53:02.268Z,102070.81
2019-04-14T05:55:30.723Z,102073.82
2019-04-14T05:58:01.318Z,102082.64
2019-04-14T06:00:29.974Z,102078.56
2019-04-14T06:02:59.509Z,102080.20
2019-04-14T06:05:27.857Z,102071.83
2019-04-14T06:07:57.139Z,102075.73
2019-04-14T06:10:26.483Z,102079.88
2019-04-14T06:12:55.736Z,102082.09
2019-04-14T06:15:24.923Z,102080.30
2019-04-14T06:17:54.295Z,102083.59
2019-04-14T06:20:23.617Z,102090.86
2019-04-14T06:22:52.772Z,102085.62
2019-04-14T06:25:22.033Z,102085.62
2019-04-14T06:27:51.183Z,102082.25
2019-04-14T06:30:51.422Z,102084.63
2019-04-14T06:33:31.201Z,102090.70
2019-04-14T06:36:18.158Z,102089.64
2019-04-14T06:38:49.615Z,102088.64
2019-04-14T06:41:19.970Z,102087.30
2019-04-14T06:43:49.432Z,102086.95
2019-04-14T06:46:18.626Z,102086.53
2019-04-14T06:48:48.026Z,102087.34
2019-04-14T06:51:17.582Z,102092.77
2019-04-14T06:53:46.836Z,102086.61
2019-04-14T06:56:16.165Z,102082.22
2019-04-14T06:58:45.515Z,102090.00
2019-04-14T07:01:14.726Z,102084.37
2019-04-14T07:03:44.024Z,102081.20
2019-04-14T07:06:13.243Z,102085.30
2019-04-14T07:08:44.991Z,102084.04
2019-04-14T07:11:14.459Z,102088.72
2019-04-14T07:13:47.906Z,102088.75
2019-04-14T07:16:13.002Z,102088.42
2019-04-14T07:18:42.182Z,102086.47
2019-04-14T07:21:11.799Z,102086.22
2019-04-14T07:23:41.068Z,102083.61
2019-04-14T07:26:10.468Z,102083.28
2019-04-14T07:28:39.662Z,102083.80
2019-04-14T07:31:22.397Z,102082.52
2019-04-14T07:34:13.250Z,102086.59
2019-04-14T07:37:01.495Z,102072.73
2019-04-14T07:39:37.898Z,102077.56
2019-04-14T07:42:17.005Z,102075.21
2019-04-14T07:45:05.626Z,102076.92
2019-04-14T07:47:48.808Z,102078.24
2019-04-14T07:50:23.937Z,102076.23
2019-04-14T07:52:59.882Z,102071.05
2019-04-14T07:55:42.208Z,102066.94
2019-04-14T07:58:30.766Z,102072.15
2019-04-14T08:01:10.316Z,102073.47
2019-04-14T08:03:58.314Z,102065.23
2019-04-14T08:06:27.660Z,102077.87
2019-04-14T08:08:59.795Z,102076.78
2019-04-14T08:11:32.137Z,102075.62
2019-04-14T08:13:59.033Z,102079.66
2019-04-14T08:16:28.750Z,102075.03
2019-04-14T08:18:58.258Z,102077.28
2019-04-14T08:21:32.637Z,102086.48
2019-04-14T08:23:59.584Z,102082.95
2019-04-14T08:26:33.310Z,102083.11
2019-04-14T08:29:01.032Z,102083.40
2019-04-14T08:31:30.282Z,102078.80
2019-04-14T08:33:59.455Z,102087.14
2019-04-14T08:36:33.208Z,102085.27
2019-04-14T08:38:58.429Z,102088.43
2019-04-14T08:41:31.403Z,102090.17
2019-04-14T08:44:10.090Z,102089.12
2019-04-14T08:46:48.893Z,102087.76
2019-04-14T08:49:28.847Z,102083.51
2019-04-14T08:52:07.271Z,102085.23
2019-04-14T08:54:54.105Z,102079.97
2019-04-14T08:57:50.537Z,102085.41
2019-04-14T09:00:47.999Z,102084.47
2019-04-14T09:03:35.202Z,102076.59
2019-04-14T09:06:21.003Z,102072.12
2019-04-14T09:09:16.007Z,102069.98
2019-04-14T09:12:14.981Z,102065.89
2019-04-14T09:14:34.121Z,102071.61
2019-04-14T09:17:31.592Z,102072.59
2019-04-14T09:20:06.186Z,102080.82
2019-04-14T09:22:38.851Z,102077.48
2019-04-14T09:25:06.483Z,102077.62
2019-04-14T09:27:39.218Z,102085.63
2019-04-14T09:30:13.302Z,102074.45
2019-04-14T09:32:46.872Z,102080.69
2019-04-14T09:35:21.293Z,102073.34
2019-04-14T09:37:52.244Z,102081.23
2019-04-14T09:40:25.814Z,102075.92
2019-04-14T09:42:57.666Z,102094.90
2019-04-14T09:45:29.316Z,102106.34
2019-04-14T09:47:59.035Z,102102.66
2019-04-14T09:50:32.978Z,102102.13
2019-04-14T09:53:04.354Z,102100.42
2019-04-14T09:55:31.966Z,102092.77
2019-04-14T09:58:03.735Z,102096.45
2019-04-14T10:00:33.566Z,102100.34
2019-04-14T10:03:02.830Z,102100.61
2019-04-14T10:05:32.459Z,102109.71
2019-04-14T10:08:01.951Z,102109.32
2019-04-14T10:10:31.582Z,102095.44
2019-04-14T10:13:02.613Z,102107.25
2019-04-14T10:15:34.688Z,102118.30
2019-04-14T10:18:08.586Z,102114.16
2019-04-14T10:20:41.826Z,102113.47
2019-04-14T10:23:10.084Z,102105.46
2019-04-14T10:25:39.639Z,102112.19
2019-04-14T10:32:10.803Z,102112.42
2019-04-14T10:35:02.389Z,102120.57
2019-04-14T10:38:41.702Z,102109.88
2019-04-14T10:41:29.241Z,102107.94
2019-04-14T10:48:26.597Z,102098.81
2019-04-14T10:56:47.639Z,102099.68
2019-04-14T10:58:31.231Z,102100.66
2019-04-14T11:01:52.196Z,102101.58
2019-04-14T11:11:00.857Z,102092.89
2019-04-14T11:15:28.624Z,102091.84
2019-04-14T11:21:42.773Z,102088.52
2019-04-14T11:28:38.890Z,102083.64
2019-04-14T11:32:19.540Z,102093.88
2019-04-14T11:35:37.851Z,102091.22
2019-04-14T11:46:54.591Z,102091.20
2019-04-14T11:53:23.357Z,102097.28
2019-04-14T11:57:07.556Z,102103.77
2019-04-14T12:00:41.558Z,102094.67
2019-04-14T12:03:53.293Z,102099.10
2019-04-14T12:07:25.877Z,102088.73
2019-04-14T12:10:25.624Z,102083.80
2019-04-14T12:17:03.414Z,102094.23
2019-04-14T12:19:34.985Z,102098.35
2019-04-14T12:22:24.041Z,102101.14
2019-04-14T12:25:35.874Z,102107.23
2019-04-14T12:28:36.166Z,102104.53
2019-04-14T12:34:59.901Z,102104.36
2019-04-14T12:37:43.207Z,102101.13
2019-04-14T12:40:36.937Z,102107.23
2019-04-14T12:43:32.643Z,102108.81
2019-04-14T12:47:06.992Z,102106.65
2019-04-14T12:49:36.420Z,102104.05
2019-04-14T12:52:33.659Z,102103.84
2019-04-14T12:55:57.253Z,102110.64
2019-04-14T13:02:50.243Z,102106.99
2019-04-14T13:05:45.329Z,102097.80
2019-04-14T13:09:02.172Z,102103.25
2019-04-14T13:12:55.985Z,102107.84
2019-04-14T13:23:21.156Z,102086.01
2019-04-14T13:37:45.494Z,102068.20
2019-04-14T13:44:23.439Z,102068.53
2019-04-14T13:47:56.817Z,102057.38
2019-04-14T13:55:25.142Z,102047.86
2019-04-14T13:58:43.179Z,102056.58
2019-04-14T14:05:21.613Z,102059.83
2019-04-14T14:08:31.603Z,102042.53
2019-04-14T14:17:50.050Z,102045.02
2019-04-14T14:20:00.991Z,102025.53
2019-04-14T14:23:04.855Z,102012.52
2019-04-14T14:30:30.753Z,102025.91
2019-04-14T14:44:46.310Z,102017.06
2019-04-14T15:00:15.982Z,102012.87
2019-04-14T15:18:25.306Z,102035.55
2019-04-14T15:24:50.245Z,102027.94
2019-04-14T15:27:54.566Z,102025.43
2019-04-14T15:38:34.394Z,102037.52
2019-04-14T15:42:08.975Z,102045.30
2019-04-14T15:45:37.179Z,102050.70
2019-04-14T15:49:35.832Z,102053.17
2019-04-14T15:52:04.701Z,102050.79
2019-04-14T16:07:55.412Z,102054.53
2019-04-14T16:17:06.802Z,102059.83
2019-04-14T16:20:13.843Z,102066.84
2019-04-14T16:23:02.111Z,102065.13
2019-04-14T16:25:51.030Z,102069.44
2019-04-14T16:28:25.014Z,102067.73
2019-04-14T16:31:28.425Z,102066.11
2019-04-14T16:34:06.808Z,102054.97
2019-04-14T16:36:36.222Z,102075.38
2019-04-14T16:39:10.992Z,102077.72
2019-04-14T16:41:44.370Z,102084.54
2019-04-14T16:44:12.707Z,102088.37
2019-04-14T16:46:56.876Z,102078.70
2019-04-14T16:49:26.162Z,102093.92
2019-04-14T16:51:58.494Z,102091.31
2019-04-14T16:54:47.622Z,102093.68
2019-04-14T16:57:34.786Z,102090.33
2019-04-14T17:00:04.089Z,102092.88
2019-04-14T17:02:33.396Z,102102.89
2019-04-14T17:05:02.785Z,102109.04
2019-04-14T17:07:32.214Z,102105.69
2019-04-14T17:10:07.857Z,102102.09
2019-04-14T17:12:43.682Z,102103.52
2019-04-14T17:15:23.673Z,102107.93
2019-04-14T17:18:15.881Z,102111.89
2019-04-14T17:21:06.226Z,102104.34
2019-04-14T17:23:58.104Z,102106.19
2019-04-14T17:26:46.598Z,102111.08
2019-04-14T17:29:24.783Z,102113.73
2019-04-14T17:32:10.751Z,102114.92
2019-04-14T17:35:07.213Z,102108.28
2019-04-14T17:38:10.009Z,102102.66
2019-04-14T17:40:52.498Z,102093.28
2019-04-14T17:43:31.121Z,102101.94
2019-04-14T17:46:36.068Z,102104.59
2019-04-14T17:49:33.485Z,102107.56
2019-04-14T17:53:13.594Z,102100.64
2019-04-14T17:56:01.554Z,102099.11
2019-04-14T17:59:09.304Z,102102.44
2019-04-14T18:01:38.080Z,102099.69
2019-04-14T18:04:26.554Z,102111.02
2019-04-14T18:07:18.610Z,102113.95
2019-04-14T18:10:10.326Z,102117.70
2019-04-14T18:12:46.689Z,102120.58
2019-04-14T18:15:33.737Z,102123.08
2019-04-14T18:18:22.249Z,102130.16
2019-04-14T18:20:57.297Z,102138.94
2019-04-14T18:23:27.010Z,102140.14
2019-04-14T18:25:56.357Z,102142.87
2019-04-14T18:28:57.989Z,102147.22
2019-04-14T18:31:39.618Z,102148.92
2019-04-14T18:34:28.883Z,102155.34
2019-04-14T18:37:13.208Z,102136.78
2019-04-14T18:40:04.139Z,102152.34
2019-04-14T18:42:46.024Z,102159.00
2019-04-14T18:45:42.715Z,102158.34
2019-04-14T18:48:22.529Z,102162.55
2019-04-14T18:51:08.307Z,102168.11
2019-04-14T18:53:59.575Z,102170.05
2019-04-14T18:56:40.247Z,102171.70
2019-04-14T18:59:26.748Z,102184.70
2019-04-14T19:01:56.623Z,102191.48
2019-04-14T19:04:26.059Z,102198.19
2019-04-14T19:07:00.572Z,102198.00
2019-04-14T19:09:28.192Z,102197.83
2019-04-14T19:12:18.411Z,102204.21
2019-04-14T19:14:48.779Z,102203.66
2019-04-14T19:17:37.693Z,102208.48
2019-04-14T19:20:07.004Z,102211.14
2019-04-14T19:22:39.183Z,102211.80
2019-04-14T19:25:12.468Z,102213.80
2019-04-14T19:27:40.563Z,102213.24
2019-04-14T19:30:09.859Z,102206.50
2019-04-14T19:32:43.524Z,102215.91
2019-04-14T19:35:15.514Z,102214.75
2019-04-14T19:37:46.761Z,102212.07
2019-04-14T19:40:20.523Z,102229.48
2019-04-14T19:42:53.327Z,102228.19
2019-04-14T19:45:25.355Z,102231.77
2019-04-14T19:47:54.622Z,102232.73
2019-04-14T19:50:24.341Z,102239.41
2019-04-14T19:52:58.003Z,102240.91
2019-04-14T19:55:31.130Z,102248.38
2019-04-14T19:58:00.824Z,102256.69
2019-04-14T20:00:34.387Z,102256.92
2019-04-14T20:03:06.629Z,102257.53
2019-04-14T20:05:41.792Z,102254.56
2019-04-14T20:08:13.957Z,102257.65
2019-04-14T20:10:41.063Z,102255.94
2019-04-14T20:13:10.717Z,102264.56
2019-04-14T20:15:58.143Z,102259.75
2019-04-14T20:18:35.474Z,102260.07
2019-04-14T20:21:36.591Z,102255.42
2019-04-14T20:24:09.709Z,102244.98
2019-04-14T20:26:58.352Z,102248.78
2019-04-14T20:29:40.089Z,102238.33
2019-04-14T20:32:12.322Z,102243.76
2019-04-14T20:34:43.951Z,102236.98
2019-04-14T20:37:15.698Z,102239.39
2019-04-14T20:39:45.150Z,102238.45
2019-04-14T20:42:16.549Z,102236.55
2019-04-14T20:44:43.841Z,102245.72
2019-04-14T20:47:16.069Z,102244.92
2019-04-14T20:49:45.452Z,102247.95
2019-04-14T20:52:14.934Z,102238.55
2019-04-14T20:54:44.446Z,102240.88
2019-04-14T20:57:15.936Z,102245.12
2019-04-14T20:59:45.266Z,102245.34
2019-04-14T21:02:39.640Z,102243.91
2019-04-14T21:05:22.862Z,102246.80
2019-04-14T21:08:23.377Z,102250.55
2019-04-14T21:10:59.373Z,102252.59
2019-04-14T21:13:58.588Z,102256.83
2019-04-14T21:16:37.207Z,102258.97
2019-04-14T21:19:17.506Z,102260.51
2019-04-14T21:21:54.589Z,102264.77
2019-04-14T21:24:39.501Z,102277.13
2019-04-14T21:27:43.095Z,102284.27
2019-04-14T21:30:31.469Z,102290.47
2019-04-14T21:33:12.945Z,102286.12
2019-04-14T21:35:54.092Z,102285.53
2019-04-14T21:38:41.410Z,102287.06
2019-04-14T21:41:18.910Z,102273.27
2019-04-14T21:43:48.754Z,102284.00
2019-04-14T21:46:18.482Z,102276.45
2019-04-14T21:48:50.343Z,102275.86
2019-04-14T21:51:19.879Z,102282.62
2019-04-14T21:53:49.372Z,102274.42
2019-04-14T21:56:19.002Z,102271.51
2019-04-14T21:58:55.808Z,102268.33
2019-04-14T22:01:51.710Z,102266.19
2019-04-14T22:04:39.373Z,102274.52
2019-04-14T22:07:24.754Z,102270.80
2019-04-14T22:09:56.800Z,102277.36
2019-04-14T22:12:26.784Z,102272.38
2019-04-14T22:14:58.914Z,102274.56
2019-04-14T22:17:28.502Z,102276.88
2019-04-14T22:20:00.207Z,102279.87
2019-04-14T22:22:29.818Z,102286.33
2019-04-14T22:25:01.054Z,102281.53
2019-04-14T22:27:30.293Z,102285.38
2019-04-14T22:30:02.790Z,102277.95
2019-04-14T22:32:36.390Z,102271.86
2019-04-14T22:35:06.010Z,102278.14
2019-04-14T22:37:33.308Z,102278.36
2019-04-14T22:40:06.211Z,102274.80
2019-04-14T22:42:35.914Z,102282.80
2019-04-14T22:45:05.889Z,102283.77
2019-04-14T22:47:35.800Z,102288.77
2019-04-14T22:50:07.791Z,102291.73
2019-04-14T22:52:37.403Z,102297.61
2019-04-14T22:55:12.998Z,102299.43
2019-04-14T22:57:42.510Z,102305.01
2019-04-14T23:00:14.023Z,102301.91
2019-04-14T23:02:54.873Z,102294.58
2019-04-14T23:05:48.069Z,102300.46
2019-04-14T23:08:34.797Z,102293.66
2019-04-14T23:11:29.199Z,102296.25
2019-04-14T23:14:29.426Z,102294.51
2019-04-14T23:17:14.799Z,102283.06
2019-04-14T23:20:05.842Z,102290.61
2019-04-14T23:22:47.033Z,102292.52
2019-04-14T23:25:16.726Z,102296.16
2019-04-14T23:27:48.326Z,102299.89
2019-04-14T23:30:18.941Z,102297.50
2019-04-14T23:32:51.259Z,102300.51
2019-04-14T23:35:23.714Z,102298.80
2019-04-14T23:37:58.447Z,102300.54
2019-04-14T23:40:30.917Z,102299.27
2019-04-14T23:43:02.115Z,102295.64
2019-04-14T23:45:34.789Z,102296.12
2019-04-14T23:48:04.346Z,102297.06
2019-04-14T23:50:38.741Z,102291.55
2019-04-14T23:53:10.093Z,102283.94
2019-04-14T23:55:42.213Z,102292.51
2019-04-14T23:58:19.108Z,102288.63
